sensor_id;sensor_type;location;lat;lon;timestamp;pressure;altitude;pressure_sealevel;temperature;humidity
38038;BME280;23843;51.320;12.340;2022-08-19T04:31:58;99767.47;;;22.08;92.66
38038;BME280;23843;51.320;12.340;2022-08-19T04:34:25;99763.41;;;22.12;92.28
38038;BME280;23843;51.320;12.340;2022-08-19T04:36:55;99744.53;;;22.12;93.05
38038;BME280;23843;51.320;12.340;2022-08-19T04:39:23;99738.81;;;22.07;94.60
38038;BME280;23843;51.320;12.340;2022-08-19T04:41:49;99739.13;;;22.04;95.14
38038;BME280;23843;51.320;12.340;2022-08-19T04:44:14;99743.22;;;22.00;94.55
38038;BME280;23843;51.320;12.340;2022-08-19T04:46:40;99745.91;;;22.00;94.65
38038;BME280;23843;51.320;12.340;2022-08-19T04:49:07;99749.59;;;22.07;94.30
38038;BME280;23843;51.320;12.340;2022-08-19T04:51:33;99755.00;;;22.07;94.79
38038;BME280;23843;51.320;12.340;2022-08-19T04:53:59;99754.28;;;22.13;94.72
38038;BME280;23843;51.320;12.340;2022-08-19T04:56:26;99751.06;;;22.18;93.79
38038;BME280;23843;51.320;12.340;2022-08-19T04:58:53;99753.94;;;22.16;95.17
38038;BME280;23843;51.320;12.340;2022-08-19T05:01:21;99758.84;;;22.13;94.25
38038;BME280;23843;51.320;12.340;2022-08-19T05:03:47;99759.19;;;22.18;93.91
38038;BME280;23843;51.320;12.340;2022-08-19T05:06:16;99755.63;;;22.17;94.42
38038;BME280;23843;51.320;12.340;2022-08-19T05:08:42;99763.72;;;22.26;93.13
38038;BME280;23843;51.320;12.340;2022-08-19T05:11:10;99761.03;;;22.26;92.66
38038;BME280;23843;51.320;12.340;2022-08-19T05:13:36;99756.16;;;22.21;94.33
38038;BME280;23843;51.320;12.340;2022-08-19T05:16:02;99748.91;;;22.13;96.58
38038;BME280;23843;51.320;12.340;2022-08-19T05:18:28;99765.78;;;22.07;96.05
38038;BME280;23843;51.320;12.340;2022-08-19T05:20:54;99747.91;;;22.06;97.40
38038;BME280;23843;51.320;12.340;2022-08-19T05:23:20;99762.75;;;22.02;96.30
38038;BME280;23843;51.320;12.340;2022-08-19T05:25:46;99762.75;;;22.10;95.28
38038;BME280;23843;51.320;12.340;2022-08-19T05:28:11;99773.38;;;22.12;96.66
38038;BME280;23843;51.320;12.340;2022-08-19T05:30:37;99776.22;;;22.10;96.29
38038;BME280;23843;51.320;12.340;2022-08-19T05:33:02;99774.88;;;22.14;95.21
38038;BME280;23843;51.320;12.340;2022-08-19T05:35:28;99784.81;;;22.14;94.97
38038;BME280;23843;51.320;12.340;2022-08-19T05:37:53;99781.25;;;22.13;95.63
38038;BME280;23843;51.320;12.340;2022-08-19T05:40:20;99779.28;;;22.07;96.51
38038;BME280;23843;51.320;12.340;2022-08-19T05:42:45;99791.06;;;22.06;96.45
38038;BME280;23843;51.320;12.340;2022-08-19T05:45:11;99798.16;;;22.07;95.51
38038;BME280;23843;51.320;12.340;2022-08-19T05:47:36;99803.53;;;22.15;94.77
38038;BME280;23843;51.320;12.340;2022-08-19T05:50:02;99803.03;;;22.20;94.20
38038;BME280;23843;51.320;12.340;2022-08-19T05:52:27;99815.66;;;22.28;94.05
38038;BME280;23843;51.320;12.340;2022-08-19T05:54:53;99818.22;;;22.29;93.96
38038;BME280;23843;51.320;12.340;2022-08-19T05:57:20;99821.03;;;22.36;93.32
38038;BME280;23843;51.320;12.340;2022-08-19T05:59:46;99814.28;;;22.40;93.50
38038;BME280;23843;51.320;12.340;2022-08-19T06:02:11;99819.84;;;22.38;93.46
38038;BME280;23843;51.320;12.340;2022-08-19T06:04:37;99811.28;;;22.35;92.42
38038;BME280;23843;51.320;12.340;2022-08-19T06:07:02;99818.03;;;22.31;93.26
38038;BME280;23843;51.320;12.340;2022-08-19T06:09:28;99812.28;;;22.26;93.69
38038;BME280;23843;51.320;12.340;2022-08-19T06:11:55;99816.50;;;22.28;93.92
38038;BME280;23843;51.320;12.340;2022-08-19T06:14:24;99816.19;;;22.31;93.92
38038;BME280;23843;51.320;12.340;2022-08-19T06:16:50;99797.47;;;22.30;93.64
38038;BME280;23843;51.320;12.340;2022-08-19T06:19:17;99806.22;;;22.32;94.02
38038;BME280;23843;51.320;12.340;2022-08-19T06:21:44;99794.75;;;22.30;94.93
38038;BME280;23843;51.320;12.340;2022-08-19T06:24:12;99803.03;;;22.36;93.45
38038;BME280;23843;51.320;12.340;2022-08-19T06:26:40;99795.75;;;22.29;93.81
38038;BME280;23843;51.320;12.340;2022-08-19T06:29:08;99814.66;;;22.20;96.00
38038;BME280;23843;51.320;12.340;2022-08-19T06:31:36;99824.94;;;22.09;96.89
38038;BME280;23843;51.320;12.340;2022-08-19T06:34:02;99838.25;;;22.10;96.79
38038;BME280;23843;51.320;12.340;2022-08-19T06:36:30;99847.72;;;22.14;95.90
38038;BME280;23843;51.320;12.340;2022-08-19T06:38:56;99861.19;;;22.14;96.75
38038;BME280;23843;51.320;12.340;2022-08-19T06:41:21;99879.75;;;22.17;95.92
38038;BME280;23843;51.320;12.340;2022-08-19T06:43:46;99889.38;;;22.20;94.80
38038;BME280;23843;51.320;12.340;2022-08-19T06:46:13;99894.59;;;22.30;93.85
38038;BME280;23843;51.320;12.340;2022-08-19T06:48:42;99902.00;;;22.28;93.74
38038;BME280;23843;51.320;12.340;2022-08-19T06:51:08;99904.72;;;22.28;93.67
38038;BME280;23843;51.320;12.340;2022-08-19T06:53:34;99910.13;;;22.28;94.52
38038;BME280;23843;51.320;12.340;2022-08-19T06:55:59;99907.75;;;22.25;94.56
38038;BME280;23843;51.320;12.340;2022-08-19T06:58:25;99913.50;;;22.21;93.44
38038;BME280;23843;51.320;12.340;2022-08-19T07:00:50;99921.75;;;22.20;93.77
38038;BME280;23843;51.320;12.340;2022-08-19T07:03:16;99932.53;;;22.20;93.82
38038;BME280;23843;51.320;12.340;2022-08-19T07:05:43;99930.31;;;22.15;93.54
38038;BME280;23843;51.320;12.340;2022-08-19T07:08:08;99934.34;;;22.11;94.64
38038;BME280;23843;51.320;12.340;2022-08-19T07:10:34;99942.59;;;22.01;94.96
38038;BME280;23843;51.320;12.340;2022-08-19T07:12:59;99941.44;;;21.96;94.67
38038;BME280;23843;51.320;12.340;2022-08-19T07:15:25;99936.88;;;21.96;94.91
38038;BME280;23843;51.320;12.340;2022-08-19T07:17:50;99947.16;;;21.93;95.61
38038;BME280;23843;51.320;12.340;2022-08-19T07:20:16;99942.47;;;21.95;94.99
38038;BME280;23843;51.320;12.340;2022-08-19T07:22:42;99948.84;;;21.94;95.40
38038;BME280;23843;51.320;12.340;2022-08-19T07:25:09;99957.28;;;21.91;95.38
38038;BME280;23843;51.320;12.340;2022-08-19T07:27:34;99957.94;;;21.93;94.84
38038;BME280;23843;51.320;12.340;2022-08-19T07:30:00;99960.16;;;21.97;94.27
38038;BME280;23843;51.320;12.340;2022-08-19T07:32:26;99954.25;;;22.02;93.57
38038;BME280;23843;51.320;12.340;2022-08-19T07:34:51;99948.53;;;22.05;93.25
38038;BME280;23843;51.320;12.340;2022-08-19T07:37:17;99945.50;;;22.08;93.41
38038;BME280;23843;51.320;12.340;2022-08-19T07:39:43;99935.22;;;22.12;93.27
38038;BME280;23843;51.320;12.340;2022-08-19T07:42:10;99935.88;;;22.14;93.33
38038;BME280;23843;51.320;12.340;2022-08-19T07:44:36;99944.47;;;22.09;94.08
38038;BME280;23843;51.320;12.340;2022-08-19T07:47:03;99939.06;;;22.09;94.14
38038;BME280;23843;51.320;12.340;2022-08-19T07:49:29;99938.75;;;22.12;93.33
38038;BME280;23843;51.320;12.340;2022-08-19T07:51:57;99937.06;;;22.19;93.01
38038;BME280;23843;51.320;12.340;2022-08-19T07:54:24;99946.38;;;22.25;92.71
38038;BME280;23843;51.320;12.340;2022-08-19T07:56:51;99950.94;;;22.25;92.69
38038;BME280;23843;51.320;12.340;2022-08-19T07:59:17;99958.66;;;22.19;92.78
38038;BME280;23843;51.320;12.340;2022-08-19T08:01:44;99943.34;;;22.20;93.65
38038;BME280;23843;51.320;12.340;2022-08-19T08:04:10;99948.38;;;22.23;92.46
38038;BME280;23843;51.320;12.340;2022-08-19T08:06:36;99946.22;;;22.27;92.50
38038;BME280;23843;51.320;12.340;2022-08-19T08:09:04;99948.56;;;22.30;92.80
38038;BME280;23843;51.320;12.340;2022-08-19T08:11:29;99950.91;;;22.33;92.59
38038;BME280;23843;51.320;12.340;2022-08-19T08:13:59;99949.75;;;22.35;92.00
38038;BME280;23843;51.320;12.340;2022-08-19T08:16:24;99959.03;;;22.33;92.79
38038;BME280;23843;51.320;12.340;2022-08-19T08:18:50;99957.00;;;22.35;92.22
38038;BME280;23843;51.320;12.340;2022-08-19T08:21:15;99966.63;;;22.29;92.73
38038;BME280;23843;51.320;12.340;2022-08-19T08:23:40;99967.47;;;22.21;92.89
38038;BME280;23843;51.320;12.340;2022-08-19T08:26:06;99963.25;;;22.27;91.64
38038;BME280;23843;51.320;12.340;2022-08-19T08:28:31;99965.75;;;22.29;91.29
38038;BME280;23843;51.320;12.340;2022-08-19T08:30:58;99970.00;;;22.31;91.05
38038;BME280;23843;51.320;12.340;2022-08-19T08:33:25;99971.16;;;22.20;91.55
38038;BME280;23843;51.320;12.340;2022-08-19T08:35:51;99974.19;;;22.26;91.63
38038;BME280;23843;51.320;12.340;2022-08-19T08:38:16;99973.69;;;22.22;91.75
38038;BME280;23843;51.320;12.340;2022-08-19T08:40:45;99971.16;;;22.20;91.20
38038;BME280;23843;51.320;12.340;2022-08-19T08:43:19;99971.81;;;22.14;91.18
38038;BME280;23843;51.320;12.340;2022-08-19T08:45:50;99972.81;;;22.05;93.33
38038;BME280;23843;51.320;12.340;2022-08-19T08:48:23;99982.56;;;21.98;92.70
38038;BME280;23843;51.320;12.340;2022-08-19T08:50:51;99984.44;;;21.97;92.97
38038;BME280;23843;51.320;12.340;2022-08-19T08:53:20;99989.34;;;22.02;92.69
38038;BME280;23843;51.320;12.340;2022-08-19T08:55:46;99993.03;;;22.09;92.42
38038;BME280;23843;51.320;12.340;2022-08-19T08:58:14;99990.50;;;22.16;91.55
38038;BME280;23843;51.320;12.340;2022-08-19T09:00:44;99992.75;;;22.20;91.02
38038;BME280;23843;51.320;12.340;2022-08-19T09:03:17;99991.75;;;22.21;91.21
38038;BME280;23843;51.320;12.340;2022-08-19T09:05:51;99991.91;;;22.20;90.98
38038;BME280;23843;51.320;12.340;2022-08-19T09:08:28;99988.34;;;22.19;90.36
38038;BME280;23843;51.320;12.340;2022-08-19T09:10:57;99987.34;;;22.20;89.85
38038;BME280;23843;51.320;12.340;2022-08-19T09:13:32;99985.31;;;22.22;90.90
38038;BME280;23843;51.320;12.340;2022-08-19T09:16:05;99981.44;;;22.25;91.08
38038;BME280;23843;51.320;12.340;2022-08-19T09:18:39;99975.22;;;22.25;90.64
38038;BME280;23843;51.320;12.340;2022-08-19T09:21:06;99982.47;;;22.24;90.54
38038;BME280;23843;51.320;12.340;2022-08-19T09:23:32;99984.50;;;22.22;90.44
38038;BME280;23843;51.320;12.340;2022-08-19T09:25:57;99988.34;;;22.36;89.45
38038;BME280;23843;51.320;12.340;2022-08-19T09:28:22;99988.88;;;22.39;89.36
38038;BME280;23843;51.320;12.340;2022-08-19T09:30:48;99987.38;;;22.53;88.41
38038;BME280;23843;51.320;12.340;2022-08-19T09:33:13;99993.75;;;22.60;87.97
38038;BME280;23843;51.320;12.340;2022-08-19T09:35:39;99989.03;;;22.62;87.42
38038;BME280;23843;51.320;12.340;2022-08-19T09:38:05;99987.03;;;22.56;87.25
38038;BME280;23843;51.320;12.340;2022-08-19T09:40:31;99991.41;;;22.57;87.61
38038;BME280;23843;51.320;12.340;2022-08-19T09:42:57;99983.28;;;22.57;87.47
38038;BME280;23843;51.320;12.340;2022-08-19T09:45:22;99982.28;;;22.67;87.76
38038;BME280;23843;51.320;12.340;2022-08-19T09:47:49;99976.22;;;22.64;87.58
38038;BME280;23843;51.320;12.340;2022-08-19T09:50:15;99975.84;;;22.68;85.63
38038;BME280;23843;51.320;12.340;2022-08-19T09:52:40;99978.06;;;22.64;86.31
38038;BME280;23843;51.320;12.340;2022-08-19T09:55:08;99994.28;;;22.64;86.39
38038;BME280;23843;51.320;12.340;2022-08-19T09:57:35;99982.47;;;22.57;85.80
38038;BME280;23843;51.320;12.340;2022-08-19T10:00:00;99984.66;;;22.61;85.32
38038;BME280;23843;51.320;12.340;2022-08-19T10:02:26;99982.13;;;22.60;85.46
38038;BME280;23843;51.320;12.340;2022-08-19T10:04:51;99985.84;;;22.59;84.86
38038;BME280;23843;51.320;12.340;2022-08-19T10:07:17;99980.94;;;22.62;85.46
38038;BME280;23843;51.320;12.340;2022-08-19T10:09:42;99974.84;;;22.77;84.79
38038;BME280;23843;51.320;12.340;2022-08-19T10:12:09;99969.28;;;22.78;83.45
38038;BME280;23843;51.320;12.340;2022-08-19T10:14:35;99960.50;;;22.76;82.77
38038;BME280;23843;51.320;12.340;2022-08-19T10:17:02;99962.34;;;22.84;83.90
38038;BME280;23843;51.320;12.340;2022-08-19T10:19:27;99959.13;;;23.05;83.83
38038;BME280;23843;51.320;12.340;2022-08-19T10:21:53;99952.13;;;23.19;81.58
38038;BME280;23843;51.320;12.340;2022-08-19T10:24:19;99958.84;;;23.31;81.83
38038;BME280;23843;51.320;12.340;2022-08-19T10:26:44;99972.50;;;23.38;81.01
38038;BME280;23843;51.320;12.340;2022-08-19T10:29:11;99975.00;;;23.47;79.93
38038;BME280;23843;51.320;12.340;2022-08-19T10:31:37;99978.53;;;23.48;79.72
38038;BME280;23843;51.320;12.340;2022-08-19T10:34:02;99983.94;;;23.48;79.48
38038;BME280;23843;51.320;12.340;2022-08-19T10:36:30;99971.09;;;23.50;80.22
38038;BME280;23843;51.320;12.340;2022-08-19T10:38:59;99964.94;;;23.64;79.12
38038;BME280;23843;51.320;12.340;2022-08-19T10:41:26;99975.75;;;23.64;78.80
38038;BME280;23843;51.320;12.340;2022-08-19T10:43:53;99971.91;;;23.59;77.58
38038;BME280;23843;51.320;12.340;2022-08-19T10:46:21;99988.81;;;23.53;78.40
38038;BME280;23843;51.320;12.340;2022-08-19T10:48:48;99990.22;;;23.48;78.40
38038;BME280;23843;51.320;12.340;2022-08-19T10:51:14;99995.94;;;23.45;77.19
38038;BME280;23843;51.320;12.340;2022-08-19T10:53:39;99994.94;;;23.46;78.12
38038;BME280;23843;51.320;12.340;2022-08-19T10:56:05;99989.22;;;23.41;77.14
38038;BME280;23843;51.320;12.340;2022-08-19T10:58:30;99989.88;;;23.43;78.37
38038;BME280;23843;51.320;12.340;2022-08-19T11:00:58;99984.47;;;23.43;77.84
38038;BME280;23843;51.320;12.340;2022-08-19T11:03:26;99984.59;;;23.58;77.96
38038;BME280;23843;51.320;12.340;2022-08-19T11:05:58;99975.41;;;23.67;78.24
38038;BME280;23843;51.320;12.340;2022-08-19T11:08:24;99981.81;;;23.75;76.88
38038;BME280;23843;51.320;12.340;2022-08-19T11:10:50;99979.59;;;23.70;76.82
38038;BME280;23843;51.320;12.340;2022-08-19T11:13:16;99975.03;;;23.79;76.09
38038;BME280;23843;51.320;12.340;2022-08-19T11:15:41;99981.59;;;23.84;76.68
38038;BME280;23843;51.320;12.340;2022-08-19T11:18:07;99994.13;;;23.77;76.11
38038;BME280;23843;51.320;12.340;2022-08-19T11:20:33;99999.22;;;23.72;75.65
38038;BME280;23843;51.320;12.340;2022-08-19T11:22:59;100000.59;;;23.68;75.26
38038;BME280;23843;51.320;12.340;2022-08-19T11:25:24;99993.69;;;23.65;75.72
38038;BME280;23843;51.320;12.340;2022-08-19T11:27:50;99996.69;;;23.70;75.38
38038;BME280;23843;51.320;12.340;2022-08-19T11:30:15;99999.22;;;23.80;73.49
38038;BME280;23843;51.320;12.340;2022-08-19T11:32:41;100006.81;;;23.77;74.09
38038;BME280;23843;51.320;12.340;2022-08-19T11:35:07;100015.09;;;23.83;73.39
38038;BME280;23843;51.320;12.340;2022-08-19T11:37:34;100018.16;;;23.80;74.36
38038;BME280;23843;51.320;12.340;2022-08-19T11:39:59;100012.75;;;24.03;73.92
38038;BME280;23843;51.320;12.340;2022-08-19T11:42:25;100016.75;;;24.16;73.06
38038;BME280;23843;51.320;12.340;2022-08-19T11:44:51;100012.84;;;24.18;71.35
38038;BME280;23843;51.320;12.340;2022-08-19T11:47:16;100025.28;;;24.27;72.63
38038;BME280;23843;51.320;12.340;2022-08-19T11:49:42;100023.00;;;24.39;70.79
38038;BME280;23843;51.320;12.340;2022-08-19T11:52:07;100022.78;;;24.49;71.47
38038;BME280;23843;51.320;12.340;2022-08-19T11:57:01;100015.84;;;24.69;70.35
38038;BME280;23843;51.320;12.340;2022-08-19T11:59:27;100021.81;;;24.65;70.32
38038;BME280;23843;51.320;12.340;2022-08-19T12:01:53;100004.34;;;24.67;70.19
38038;BME280;23843;51.320;12.340;2022-08-19T12:04:18;100007.25;;;24.66;68.50
38038;BME280;23843;51.320;12.340;2022-08-19T12:06:43;100003.63;;;24.73;69.99
38038;BME280;23843;51.320;12.340;2022-08-19T12:09:10;99998.22;;;24.73;70.31
38038;BME280;23843;51.320;12.340;2022-08-19T12:11:37;99996.50;;;24.72;70.27
38038;BME280;23843;51.320;12.340;2022-08-19T12:14:03;99992.56;;;24.60;68.56
38038;BME280;23843;51.320;12.340;2022-08-19T12:16:30;99995.50;;;24.73;67.98
38038;BME280;23843;51.320;12.340;2022-08-19T12:18:56;99988.31;;;24.81;68.19
38038;BME280;23843;51.320;12.340;2022-08-19T12:21:25;99981.88;;;24.96;69.52
38038;BME280;23843;51.320;12.340;2022-08-19T12:23:51;99974.50;;;25.05;65.96
38038;BME280;23843;51.320;12.340;2022-08-19T12:26:16;99972.75;;;25.12;68.59
38038;BME280;23843;51.320;12.340;2022-08-19T12:28:44;99972.34;;;25.15;65.98
38038;BME280;23843;51.320;12.340;2022-08-19T12:31:10;99967.50;;;25.11;64.74
38038;BME280;23843;51.320;12.340;2022-08-19T12:33:35;99963.28;;;25.08;65.16
38038;BME280;23843;51.320;12.340;2022-08-19T12:36:03;99962.06;;;25.11;65.34
38038;BME280;23843;51.320;12.340;2022-08-19T12:38:28;99955.00;;;25.10;67.17
38038;BME280;23843;51.320;12.340;2022-08-19T12:40:54;99960.84;;;25.13;65.40
38038;BME280;23843;51.320;12.340;2022-08-19T12:43:19;99964.22;;;25.15;65.60
38038;BME280;23843;51.320;12.340;2022-08-19T12:45:46;99965.44;;;25.13;65.69
38038;BME280;23843;51.320;12.340;2022-08-19T12:48:11;99968.94;;;25.22;65.56
38038;BME280;23843;51.320;12.340;2022-08-19T12:50:39;99973.22;;;25.31;64.38
38038;BME280;23843;51.320;12.340;2022-08-19T12:53:04;99970.50;;;25.31;64.86
38038;BME280;23843;51.320;12.340;2022-08-19T12:55:30;99966.69;;;25.25;65.25
38038;BME280;23843;51.320;12.340;2022-08-19T12:57:55;99961.16;;;25.33;65.95
38038;BME280;23843;51.320;12.340;2022-08-19T13:00:21;99964.63;;;25.42;65.62
38038;BME280;23843;51.320;12.340;2022-08-19T13:02:51;99972.00;;;25.33;64.65
38038;BME280;23843;51.320;12.340;2022-08-19T13:05:19;99971.44;;;25.38;63.60
38038;BME280;23843;51.320;12.340;2022-08-19T13:07:45;99980.41;;;25.24;63.02
38038;BME280;23843;51.320;12.340;2022-08-19T13:10:12;99980.78;;;25.35;66.16
38038;BME280;23843;51.320;12.340;2022-08-19T13:12:38;99976.19;;;25.66;65.89
38038;BME280;23843;51.320;12.340;2022-08-19T13:15:05;99982.81;;;25.63;63.69
38038;BME280;23843;51.320;12.340;2022-08-19T13:17:30;99987.38;;;25.62;64.92
38038;BME280;23843;51.320;12.340;2022-08-19T13:19:57;99985.72;;;25.61;65.27
38038;BME280;23843;51.320;12.340;2022-08-19T13:22:22;99982.88;;;25.70;64.89
38038;BME280;23843;51.320;12.340;2022-08-19T13:24:48;99975.00;;;25.75;64.28
38038;BME280;23843;51.320;12.340;2022-08-19T13:27:13;99976.13;;;25.80;64.34
38038;BME280;23843;51.320;12.340;2022-08-19T13:29:39;99980.81;;;25.72;64.34
38038;BME280;23843;51.320;12.340;2022-08-19T13:32:05;99986.81;;;25.67;64.20
38038;BME280;23843;51.320;12.340;2022-08-19T13:34:33;99993.28;;;25.66;63.38
38038;BME280;23843;51.320;12.340;2022-08-19T13:37:01;99999.75;;;25.50;65.50
38038;BME280;23843;51.320;12.340;2022-08-19T13:39:27;99999.69;;;25.44;65.51
38038;BME280;23843;51.320;12.340;2022-08-19T13:41:52;100012.38;;;25.43;65.34
38038;BME280;23843;51.320;12.340;2022-08-19T13:44:18;99999.13;;;25.33;65.71
38038;BME280;23843;51.320;12.340;2022-08-19T13:46:45;100007.91;;;25.35;65.19
38038;BME280;23843;51.320;12.340;2022-08-19T13:49:11;100016.88;;;25.36;64.74
38038;BME280;23843;51.320;12.340;2022-08-19T13:51:37;100025.00;;;25.21;65.08
38038;BME280;23843;51.320;12.340;2022-08-19T13:54:04;100028.75;;;25.20;65.64
38038;BME280;23843;51.320;12.340;2022-08-19T13:56:30;100022.75;;;25.10;65.59
38038;BME280;23843;51.320;12.340;2022-08-19T13:58:55;100015.81;;;25.07;65.52
38038;BME280;23843;51.320;12.340;2022-08-19T14:01:21;100019.34;;;24.93;65.90
38038;BME280;23843;51.320;12.340;2022-08-19T14:03:47;100013.16;;;24.84;66.33
38038;BME280;23843;51.320;12.340;2022-08-19T14:06:12;100011.22;;;24.78;66.75
38038;BME280;23843;51.320;12.340;2022-08-19T14:08:38;100011.94;;;24.87;66.20
38038;BME280;23843;51.320;12.340;2022-08-19T14:11:05;100012.69;;;24.81;66.25
38038;BME280;23843;51.320;12.340;2022-08-19T14:13:30;100015.03;;;24.84;66.09
38038;BME280;23843;51.320;12.340;2022-08-19T14:15:55;100005.88;;;24.85;66.13
38038;BME280;23843;51.320;12.340;2022-08-19T14:18:21;100001.56;;;24.75;66.71
38038;BME280;23843;51.320;12.340;2022-08-19T14:20:46;99999.72;;;24.76;66.33
38038;BME280;23843;51.320;12.340;2022-08-19T14:23:15;100002.03;;;24.79;66.83
38038;BME280;23843;51.320;12.340;2022-08-19T14:25:43;99995.78;;;24.78;66.79
38038;BME280;23843;51.320;12.340;2022-08-19T14:28:09;100003.25;;;24.76;66.32
38038;BME280;23843;51.320;12.340;2022-08-19T14:30:38;100005.78;;;24.78;66.58
38038;BME280;23843;51.320;12.340;2022-08-19T14:33:04;100007.00;;;24.75;66.72
38038;BME280;23843;51.320;12.340;2022-08-19T14:35:32;100009.16;;;24.80;66.35
38038;BME280;23843;51.320;12.340;2022-08-19T14:37:58;100018.13;;;24.81;66.15
38038;BME280;23843;51.320;12.340;2022-08-19T14:40:25;100010.56;;;24.91;65.93
38038;BME280;23843;51.320;12.340;2022-08-19T14:42:51;100010.94;;;24.88;64.80
38038;BME280;23843;51.320;12.340;2022-08-19T14:45:18;100018.03;;;24.89;65.04
38038;BME280;23843;51.320;12.340;2022-08-19T14:47:44;100013.38;;;24.83;65.79
38038;BME280;23843;51.320;12.340;2022-08-19T14:50:11;100006.44;;;24.80;65.70
38038;BME280;23843;51.320;12.340;2022-08-19T14:52:37;99993.25;;;24.77;66.13
38038;BME280;23843;51.320;12.340;2022-08-19T14:55:03;99999.22;;;24.72;65.91
38038;BME280;23843;51.320;12.340;2022-08-19T14:57:29;99992.84;;;24.65;66.61
38038;BME280;23843;51.320;12.340;2022-08-19T14:59:54;99996.16;;;24.75;66.37
38038;BME280;23843;51.320;12.340;2022-08-19T15:02:21;100000.44;;;24.85;65.65
38038;BME280;23843;51.320;12.340;2022-08-19T15:04:47;99994.19;;;24.84;65.72
38038;BME280;23843;51.320;12.340;2022-08-19T15:07:12;100000.38;;;24.78;65.97
38038;BME280;23843;51.320;12.340;2022-08-19T15:09:37;100007.09;;;24.82;65.39
38038;BME280;23843;51.320;12.340;2022-08-19T15:12:03;100011.66;;;24.82;66.19
38038;BME280;23843;51.320;12.340;2022-08-19T15:14:28;100013.66;;;24.88;65.62
38038;BME280;23843;51.320;12.340;2022-08-19T15:16:54;100020.28;;;24.85;66.02
38038;BME280;23843;51.320;12.340;2022-08-19T15:19:21;100025.03;;;24.83;65.66
38038;BME280;23843;51.320;12.340;2022-08-19T15:21:46;100026.31;;;24.72;65.67
38038;BME280;23843;51.320;12.340;2022-08-19T15:24:11;100029.25;;;24.63;65.97
38038;BME280;23843;51.320;12.340;2022-08-19T15:26:37;100018.44;;;24.63;65.87
38038;BME280;23843;51.320;12.340;2022-08-19T15:29:03;100016.50;;;24.71;66.26
38038;BME280;23843;51.320;12.340;2022-08-19T15:31:29;100000.72;;;24.75;65.52
38038;BME280;23843;51.320;12.340;2022-08-19T15:33:55;99998.88;;;24.75;65.18
38038;BME280;23843;51.320;12.340;2022-08-19T15:36:22;99998.50;;;24.78;65.85
38038;BME280;23843;51.320;12.340;2022-08-19T15:38:48;100005.53;;;24.88;64.75
38038;BME280;23843;51.320;12.340;2022-08-19T15:41:17;100007.84;;;24.91;64.35
38038;BME280;23843;51.320;12.340;2022-08-19T15:43:42;100017.66;;;24.92;64.26
38038;BME280;23843;51.320;12.340;2022-08-19T15:46:08;100013.38;;;24.83;64.02
38038;BME280;23843;51.320;12.340;2022-08-19T15:48:33;100003.25;;;24.76;64.23
38038;BME280;23843;51.320;12.340;2022-08-19T15:50:58;99997.84;;;24.76;63.90
38038;BME280;23843;51.320;12.340;2022-08-19T15:53:25;100003.25;;;24.76;64.60
38038;BME280;23843;51.320;12.340;2022-08-19T15:55:51;100011.88;;;24.80;64.71
38038;BME280;23843;51.320;12.340;2022-08-19T15:58:16;100001.88;;;24.81;63.05
38038;BME280;23843;51.320;12.340;2022-08-19T16:00:41;100002.88;;;24.80;63.64
38038;BME280;23843;51.320;12.340;2022-08-19T16:03:12;100008.84;;;24.75;63.96
38038;BME280;23843;51.320;12.340;2022-08-19T16:05:37;100011.09;;;24.71;64.19
38038;BME280;23843;51.320;12.340;2022-08-19T16:08:03;100007.72;;;24.69;64.42
38038;BME280;23843;51.320;12.340;2022-08-19T16:10:30;100013.50;;;24.66;64.13
38038;BME280;23843;51.320;12.340;2022-08-19T16:12:56;100019.00;;;24.58;63.89
38038;BME280;23843;51.320;12.340;2022-08-19T16:15:24;100007.00;;;24.52;64.18
38038;BME280;23843;51.320;12.340;2022-08-19T16:17:50;100009.94;;;24.51;64.40
38038;BME280;23843;51.320;12.340;2022-08-19T16:20:15;100009.94;;;24.51;63.87
38038;BME280;23843;51.320;12.340;2022-08-19T16:22:42;100007.06;;;24.44;63.84
38038;BME280;23843;51.320;12.340;2022-08-19T16:25:08;100003.53;;;24.44;64.80
38038;BME280;23843;51.320;12.340;2022-08-19T16:27:35;100003.53;;;24.44;64.20
38038;BME280;23843;51.320;12.340;2022-08-19T16:30:02;99995.56;;;24.42;64.33
38038;BME280;23843;51.320;12.340;2022-08-19T16:32:28;99990.81;;;24.44;64.38
38038;BME280;23843;51.320;12.340;2022-08-19T16:34:56;99991.34;;;24.40;63.71
38038;BME280;23843;51.320;12.340;2022-08-19T16:37:22;99982.56;;;24.38;64.23
38038;BME280;23843;51.320;12.340;2022-08-19T16:39:47;99990.31;;;24.41;64.39
38038;BME280;23843;51.320;12.340;2022-08-19T16:42:13;99990.16;;;24.42;63.99
38038;BME280;23843;51.320;12.340;2022-08-19T16:44:43;99986.66;;;24.33;64.25
38038;BME280;23843;51.320;12.340;2022-08-19T16:47:09;99988.44;;;24.26;64.40
38038;BME280;23843;51.320;12.340;2022-08-19T16:49:35;99981.97;;;24.27;64.50
38038;BME280;23843;51.320;12.340;2022-08-19T16:52:00;99984.84;;;24.26;64.07
38038;BME280;23843;51.320;12.340;2022-08-19T16:54:25;99985.06;;;24.24;64.15
38038;BME280;23843;51.320;12.340;2022-08-19T16:56:51;99990.28;;;24.26;63.93
38038;BME280;23843;51.320;12.340;2022-08-19T16:59:16;100000.44;;;24.24;64.70
38038;BME280;23843;51.320;12.340;2022-08-19T17:01:43;100005.22;;;24.22;64.58
38038;BME280;23843;51.320;12.340;2022-08-19T17:04:08;100006.75;;;24.16;64.22
38038;BME280;23843;51.320;12.340;2022-08-19T17:06:34;100013.19;;;24.15;64.59
38038;BME280;23843;51.320;12.340;2022-08-19T17:09:00;100015.59;;;24.10;64.37
38038;BME280;23843;51.320;12.340;2022-08-19T17:11:27;100022.03;;;24.09;64.09
38038;BME280;23843;51.320;12.340;2022-08-19T17:13:53;100019.50;;;24.07;63.84
38038;BME280;23843;51.320;12.340;2022-08-19T17:16:21;100020.34;;;24.08;63.83